Time;durP1;ratioP1;P1;durP2;ratioP2;P2;SDS_P1;SDS_P2;PMS_P1;PMS_P2;Temp;Humidity;BMP_temperature;BMP_pressure;BME280_temperature;BME280_humidity;BME280_pressure;Samples;Min_cycle;Max_cycle;Signal;HPM_P1;HPM_P2
2023/03/20 09:50:56;;;;;;;;;;;;;;;11.05;55.76;100444.94;110762;1249;24107;-45
2023/03/20 09:53:28;;;;;;;;;;;;;;;11.29;54.95;100443.89;112651;1248;22384;-45
2023/03/20 09:56:00;;;;;;;;;;;;;;;11.38;54.65;100434.63;112418;1249;22465;-44
2023/03/20 09:58:33;;;;;;;;;;;;;;;11.48;54.50;100431.64;111717;1248;22453;-51
2023/03/20 10:01:03;;;;;;;;;;;;;;;11.51;53.64;100428.14;111769;1248;22483;-50
2023/03/20 10:03:43;;;;;;;;;;;;;;;11.47;53.66;100426.58;112186;1248;22484;-50
2023/03/20 10:06:12;;;;;;;;;;;;;;;11.44;53.37;100423.09;112226;1248;22510;-51
2023/03/20 10:08:41;;;;;;;;;;;;;;;11.43;53.45;100421.35;112076;1248;22465;-50
2023/03/20 10:11:30;;;;;;;;;;;;;;;11.47;53.18;100416.45;112522;1249;23800;-50
2023/03/20 10:14:15;;;;;;;;;;;;;;;11.58;53.03;100405.42;111885;1248;22572;-49
2023/03/20 10:16:47;;;;;;;;;;;;;;;11.72;52.55;100400.84;111485;1249;22513;-48
2023/03/20 10:19:21;;;;;;;;;;;;;;;11.89;52.09;100406.75;112344;1249;22566;-50
2023/03/20 10:22:13;;;;;;;;;;;;;;;12.15;51.57;100400.36;112632;1249;22480;-49
2023/03/20 10:24:47;;;;;;;;;;;;;;;12.48;51.01;100396.86;111223;1256;22488;-50
2023/03/20 10:27:17;;;;;;;;;;;;;;;12.72;49.37;100389.87;111851;1256;22494;-46
2023/03/20 10:29:46;;;;;;;;;;;;;;;12.97;49.06;100391.60;111116;1255;23327;-45
2023/03/20 10:32:19;;;;;;;;;;;;;;;13.24;47.07;100385.61;111844;1256;22529;-45
2023/03/20 10:34:52;;;;;;;;;;;;;;;13.41;45.00;100380.89;111546;1256;23345;-49
2023/03/20 10:37:42;;;;;;;;;;;;;;;13.68;45.08;100373.59;111192;1256;22486;-50
2023/03/20 10:40:28;;;;;;;;;;;;;;;14.30;44.66;100363.51;111997;1256;23007;-49
2023/03/20 10:42:56;;;;;;;;;;;;;;;15.09;42.94;100356.69;112092;1255;22464;-50
2023/03/20 10:45:26;;;;;;;;;;;;;;;15.66;41.71;100353.17;112052;1256;22554;-49
2023/03/20 10:47:53;;;;;;;;;;;;;;;15.92;41.11;100347.70;112102;1256;22430;-49
2023/03/20 10:50:22;;;;;;;;;;;;;;;15.91;40.80;100346.16;112079;1256;23069;-49
2023/03/20 10:52:49;;;;;;;;;;;;;;;15.88;40.85;100340.41;112038;1256;23322;-50
2023/03/20 10:55:21;;;;;;;;;;;;;;;16.10;40.51;100340.47;112040;1256;22437;-49
2023/03/20 10:57:50;;;;;;;;;;;;;;;16.61;39.79;100336.48;112129;1256;22485;-49
2023/03/20 11:00:23;;;;;;;;;;;;;;;17.15;39.11;100324.58;112113;1256;23710;-50
2023/03/20 11:02:51;;;;;;;;;;;;;;;17.72;38.19;100316.50;112558;1249;22505;-50
2023/03/20 11:05:33;;;;;;;;;;;;;;;18.12;37.55;100315.11;112697;1249;23205;-50
2023/03/20 11:08:11;;;;;;;;;;;;;;;18.47;36.80;100313.16;112727;1249;22490;-50
2023/03/20 11:10:40;;;;;;;;;;;;;;;18.98;36.20;100307.77;112315;1248;23232;-50
2023/03/20 11:13:15;;;;;;;;;;;;;;;19.47;35.19;100304.45;112800;1249;23036;-50
2023/03/20 11:15:47;;;;;;;;;;;;;;;19.88;34.13;100302.09;112766;1248;22384;-49
2023/03/20 11:18:14;;;;;;;;;;;;;;;20.25;33.43;100304.35;112692;1249;22363;-49
2023/03/20 11:20:59;;;;;;;;;;;;;;;20.50;31.81;100301.39;112799;1249;22415;-49
2023/03/20 11:23:34;;;;;;;;;;;;;;;20.42;31.61;100298.89;112115;1248;23186;-49
2023/03/20 11:26:02;;;;;;;;;;;;;;;20.25;30.87;100299.72;112440;1248;22491;-49
2023/03/20 11:28:31;;;;;;;;;;;;;;;20.06;31.13;100297.46;112788;1248;22421;-49
2023/03/20 11:30:59;;;;;;;;;;;;;;;20.01;31.46;100290.41;111933;1248;23059;-44
2023/03/20 11:33:58;;;;;;;;;;;;;;;20.01;31.16;100289.37;112663;1248;22456;-49
2023/03/20 11:36:26;;;;;;;;;;;;;;;19.62;31.80;100288.16;111917;1256;23326;-49
2023/03/20 11:39:13;;;;;;;;;;;;;;;19.40;32.63;100285.27;111942;1256;22408;-44
2023/03/20 11:41:46;;;;;;;;;;;;;;;19.27;32.62;100280.77;112039;1256;22473;-47
2023/03/20 11:44:29;;;;;;;;;;;;;;;19.19;32.82;100276.11;112137;1256;22463;-44
2023/03/20 11:46:56;;;;;;;;;;;;;;;19.15;33.03;100272.02;112158;1256;22495;-45
